Darstellungsparameter: Aktuell verwendete Einstellungen:
Skalierung der Graphiken ... ?
xyx+y,   Skalierungsfaktor:      Skalierung: Modus: x, Faktor: 1
Darstellungszeitraum ... ?
Vom - - bis: - -   Zeitraum: 12.04.2010 - 18.04.2010
Min/Max/Avg-Anzeige ... ?
Zeige MMA aktuell
Zeige MMA Monat
Zeige MMA alles
Zeige --A aktuell
Zeige --A Monat
Zeige --A alles
Keine MMA-Anzeige
MMA:
Average (ber die Originaldaten)
MMA-Basis: 12.04.2010 - 18.04.2010
Quicknavigation für Darstellung... ?
Tage:      1T, 2T, 3T, 5T -1T -2T -3T -5T +1T +2T +3T +5T
Wochen: 1W, 2W, 3W -1W -2W -3W +1W +2W +3W
Monate: 1M, 3M, 6M -1M -3M -6M +1M +3M +6M
Jahre:    1J, 3J, 5J, 10J -1J -3J -5J -10J +1J +3J +5J +10J
Nutze für die Darstellung ... ?
Originaldaten oder Mittelwerte auf ...
Stundenbasis Tagesbasis Wochenbasis
Monatsbasis Jahresbasis      Datenbasis: Original-Daten
Darstellen als:
Statistik (Auto) Statistik J:M      Darstellung:
Zur Graphik,    zurück zur Übersicht aller Sensoren.
 
Tabellarische Datenbersicht: ?
 
Sensor: Nr:Datum:Temp:Abs-Feuchte:Windchill:Wind:
Aussen-T/F 1 12-04-2010 00:11:03 5.2 C 4.27 g/m*3 5.2 C 0 km/h
2 12-04-2010 00:23:03 5.1 C 4.31 g/m*3 5.1 C 0 km/h
3 12-04-2010 00:35:03 5.1 C 4.38 g/m*3 5.1 C 0 km/h
4 12-04-2010 00:47:03 5 C 4.42 g/m*3 5 C 0 km/h
5 12-04-2010 00:59:03 4.8 C 4.43 g/m*3 4.8 C 0 km/h
6 12-04-2010 01:11:03 4.8 C 4.56 g/m*3 4.8 C 0 km/h
7 12-04-2010 01:23:03 5.1 C 4.65 g/m*3 5.1 C 0 km/h
8 12-04-2010 01:35:03 5.3 C 4.64 g/m*3 5.3 C 0 km/h
9 12-04-2010 01:47:03 5.5 C 4.71 g/m*3 5.5 C 0 km/h
10 12-04-2010 01:59:03 5.5 C 4.64 g/m*3 5.5 C 0 km/h
11 12-04-2010 02:11:03 5.2 C 4.54 g/m*3 5.2 C 0 km/h
12 12-04-2010 02:23:03 5.1 C 4.51 g/m*3 5.1 C 0 km/h
13 12-04-2010 02:35:03 5.2 C 4.54 g/m*3 5.2 C 0 km/h
14 12-04-2010 02:47:03 5.4 C 4.6 g/m*3 5.4 C 0 km/h
15 12-04-2010 02:59:03 5.5 C 4.57 g/m*3 5.5 C 0 km/h
16 12-04-2010 03:11:03 5.7 C 4.48 g/m*3 5.7 C 0 km/h
17 12-04-2010 03:23:03 5.8 C 4.51 g/m*3 5.8 C 0 km/h
18 12-04-2010 03:35:04 5.6 C 4.45 g/m*3 5.6 C 0 km/h
19 12-04-2010 03:47:04 5.4 C 4.33 g/m*3 5.4 C 0 km/h
20 12-04-2010 03:59:04 5.4 C 4.33 g/m*3 5.4 C 0 km/h
21 12-04-2010 04:11:04 5.5 C 4.35 g/m*3 5.5 C 0 km/h
22 12-04-2010 04:23:04 5.6 C 4.38 g/m*3 5.6 C 0 km/h
23 12-04-2010 04:35:04 5.7 C 4.41 g/m*3 5.7 C 0 km/h
24 12-04-2010 04:47:04 5.7 C 4.41 g/m*3 5.7 C 0 km/h
25 12-04-2010 04:59:04 5.7 C 4.48 g/m*3 5.7 C 0 km/h
Sensor: Nr:Datum:Temp:Abs-Feuchte:Windchill:Wind:
Aussen-T/F 26 12-04-2010 05:11:04 5.7 C 4.48 g/m*3 5.7 C 0 km/h
27 12-04-2010 05:23:04 5.6 C 4.6 g/m*3 5.6 C 0 km/h
28 12-04-2010 05:35:04 5.6 C 4.67 g/m*3 5.6 C 0 km/h
29 12-04-2010 05:47:04 5.7 C 4.63 g/m*3 5.7 C 0 km/h
30 12-04-2010 05:59:04 5.6 C 4.67 g/m*3 5.6 C 0 km/h
31 12-04-2010 06:11:04 5.6 C 4.67 g/m*3 5.6 C 0 km/h
32 12-04-2010 06:23:04 5.7 C 4.7 g/m*3 5.7 C 0 km/h
33 12-04-2010 06:35:04 5.7 C 4.7 g/m*3 5.7 C 0 km/h
34 12-04-2010 06:47:04 5.7 C 4.7 g/m*3 5.7 C 0 km/h
35 12-04-2010 06:59:04 5.7 C 4.7 g/m*3 5.7 C 0 km/h
36 12-04-2010 07:11:03 5.8 C 4.8 g/m*3 5.8 C 0 km/h
37 12-04-2010 07:23:02 5.8 C 4.8 g/m*3 5.8 C 0 km/h
38 12-04-2010 07:35:03 5.9 C 4.83 g/m*3 5.9 C 0 km/h
39 12-04-2010 07:47:02 5.9 C 4.83 g/m*3 5.9 C 0 km/h
40 12-04-2010 07:59:02 6.1 C 4.82 g/m*3 6.1 C 0 km/h
41 12-04-2010 08:11:01 6.3 C 4.81 g/m*3 6.3 C 0 km/h
42 12-04-2010 08:23:02 6.4 C 4.92 g/m*3 6.4 C 0 km/h
43 12-04-2010 08:35:02 6.7 C 4.94 g/m*3 6.7 C 0 km/h
44 12-04-2010 08:47:02 7 C 4.88 g/m*3 7 C 0 km/h
45 12-04-2010 08:59:02 7.4 C 4.93 g/m*3 7.4 C 0 km/h
46 12-04-2010 09:11:02 7.5 C 4.96 g/m*3 7.5 C 0 km/h
47 12-04-2010 09:23:02 7.4 C 5.01 g/m*3 7.4 C 0 km/h
48 12-04-2010 09:35:02 7.3 C 5.06 g/m*3 7.3 C 0 km/h
49 12-04-2010 09:47:02 7.5 C 5.12 g/m*3 7.5 C 0 km/h
50 12-04-2010 09:59:02 7.4 C 5.09 g/m*3 7.4 C 0 km/h
Sensor: Nr:Datum:Temp:Abs-Feuchte:Windchill:Wind:
Aussen-T/F 51 12-04-2010 10:11:02 7.5 C 5.04 g/m*3 7.5 C 0 km/h
52 12-04-2010 10:23:02 7.6 C 5.16 g/m*3 7.6 C 0 km/h
53 12-04-2010 10:35:02 7.8 C 5.22 g/m*3 7.8 C 0 km/h
54 12-04-2010 10:47:01 7.9 C 5.26 g/m*3 7.9 C 0 km/h
55 12-04-2010 10:59:01 8.3 C 5.23 g/m*3 8.3 C 0 km/h
56 12-04-2010 11:11:01 9 C 5.2 g/m*3 9 C 0 km/h
57 12-04-2010 11:23:01 9.6 C 5.04 g/m*3 9.6 C 0 km/h
58 12-04-2010 11:35:01 9.3 C 5.03 g/m*3 9.3 C 0 km/h
59 12-04-2010 11:47:02 10.5 C 4.85 g/m*3 10.5 C 0 km/h
60 12-04-2010 11:59:02 10.7 C 4.91 g/m*3 10.7 C 0 km/h
61 12-04-2010 12:11:02 10.5 C 4.95 g/m*3 10.5 C 0 km/h
62 12-04-2010 12:23:03 9.9 C 4.95 g/m*3 9.9 C 0 km/h
63 12-04-2010 12:35:02 9.6 C 5.5 g/m*3 9.6 C 0 km/h
64 12-04-2010 12:47:03 10.2 C 5.61 g/m*3 10.2 C 0 km/h
65 12-04-2010 12:59:03 11.8 C 5.58 g/m*3 11.8 C 0 km/h
66 12-04-2010 13:11:02 11.7 C 4.92 g/m*3 11.7 C 0 km/h
67 12-04-2010 13:23:02 11.5 C 4.85 g/m*3 11.5 C 0 km/h
68 12-04-2010 13:35:02 11.8 C 4.74 g/m*3 11.8 C 0 km/h
69 12-04-2010 13:47:02 11.5 C 4.65 g/m*3 11.5 C 0 km/h
70 12-04-2010 13:59:02 12 C 4.58 g/m*3 12 C 0 km/h
71 12-04-2010 14:11:02 11.7 C 4.5 g/m*3 11.7 C 0 km/h
72 12-04-2010 14:23:02 9.4 C 5.43 g/m*3 9.4 C 0 km/h
73 12-04-2010 14:35:01 8.2 C 5.78 g/m*3 8.2 C 0 km/h
74 12-04-2010 14:47:02 7.8 C 6.12 g/m*3 7.8 C 0 km/h
75 12-04-2010 14:59:02 8 C 6.37 g/m*3 8 C 0 km/h
Sensor: Nr:Datum:Temp:Abs-Feuchte:Windchill:Wind:
Aussen-T/F 76 12-04-2010 15:11:01 8.7 C 6.4 g/m*3 8.7 C 0 km/h
77 12-04-2010 15:23:02 9.2 C 6.34 g/m*3 9.2 C 0 km/h
78 12-04-2010 15:35:02 9.4 C 6.15 g/m*3 9.4 C 0 km/h
79 12-04-2010 15:47:02 9.3 C 5.75 g/m*3 9.3 C 0 km/h
80 12-04-2010 15:59:03 9.2 C 5.71 g/m*3 9.2 C 0 km/h
81 12-04-2010 16:11:02 9.3 C 5.84 g/m*3 9.3 C 0 km/h
82 12-04-2010 16:23:02 9.4 C 5.79 g/m*3 9.4 C 0 km/h
83 12-04-2010 16:35:02 9.4 C 5.61 g/m*3 9.4 C 0 km/h
84 12-04-2010 16:47:02 9.3 C 5.66 g/m*3 9.3 C 0 km/h
85 12-04-2010 16:59:02 9.3 C 5.57 g/m*3 9.3 C 0 km/h
86 12-04-2010 17:11:01 9.3 C 5.48 g/m*3 9.3 C 0 km/h
87 12-04-2010 17:23:01 9.3 C 5.57 g/m*3 9.3 C 0 km/h
88 12-04-2010 17:35:02 8.9 C 5.78 g/m*3 8.9 C 0 km/h
89 12-04-2010 17:47:02 8.5 C 5.89 g/m*3 8.5 C 0 km/h
90 12-04-2010 17:59:02 8.3 C 5.98 g/m*3 8.3 C 0 km/h
91 12-04-2010 18:11:02 8.1 C 5.99 g/m*3 8.1 C 0 km/h
92 12-04-2010 18:23:02 8 C 6.04 g/m*3 8 C 0 km/h
93 12-04-2010 18:35:02 8.1 C 6.07 g/m*3 8.1 C 0 km/h
94 12-04-2010 18:47:02 8.1 C 5.99 g/m*3 8.1 C 0 km/h
95 12-04-2010 18:59:02 8.1 C 5.99 g/m*3 8.1 C 0 km/h
96 12-04-2010 19:11:03 8 C 6.04 g/m*3 8 C 0 km/h
97 12-04-2010 19:23:02 7.8 C 6.28 g/m*3 7.8 C 0 km/h
98 12-04-2010 19:35:02 7.5 C 6.32 g/m*3 7.5 C 0 km/h
99 12-04-2010 19:47:01 7.3 C 6.4 g/m*3 7.3 C 0 km/h
100 12-04-2010 19:59:01 7.3 C 6.48 g/m*3 7.3 C 0 km/h
Sensor: Nr:Datum:Temp:Abs-Feuchte:Windchill:Wind:
Aussen-T/F 101 12-04-2010 20:11:02 7.4 C 6.6 g/m*3 7.4 C 0 km/h
102 12-04-2010 20:23:01 7.3 C 6.64 g/m*3 7.3 C 0 km/h
103 12-04-2010 20:35:01 7.3 C 6.64 g/m*3 7.3 C 0 km/h
104 12-04-2010 20:47:01 7.3 C 6.64 g/m*3 7.3 C 0 km/h
105 12-04-2010 20:59:01 7.1 C 6.55 g/m*3 7.1 C 0 km/h
106 12-04-2010 21:11:02 7.2 C 6.67 g/m*3 7.2 C 0 km/h
107 12-04-2010 21:23:01 7.3 C 6.72 g/m*3 7.3 C 0 km/h
108 12-04-2010 21:35:02 7.3 C 6.72 g/m*3 7.3 C 0 km/h
109 12-04-2010 21:47:01 7.3 C 6.72 g/m*3 7.3 C 0 km/h
110 12-04-2010 21:59:01 7.4 C 6.68 g/m*3 7.4 C 0 km/h
111 12-04-2010 22:11:02 7.4 C 6.68 g/m*3 7.4 C 0 km/h
112 12-04-2010 22:24:04 7.3 C 6.64 g/m*3 7.3 C 0 km/h
113 12-04-2010 22:36:04 7.1 C 6.55 g/m*3 7.1 C 0 km/h
114 12-04-2010 22:48:04 6.8 C 6.42 g/m*3 6.8 C 0 km/h
115 12-04-2010 23:00:04 6.9 C 6.54 g/m*3 6.9 C 0 km/h
116 12-04-2010 23:12:04 7 C 6.51 g/m*3 7 C 0 km/h
117 12-04-2010 23:24:04 7.2 C 6.59 g/m*3 7.2 C 0 km/h
118 12-04-2010 23:36:04 7.1 C 6.47 g/m*3 7.1 C 0 km/h
119 12-04-2010 23:48:04 7 C 6.35 g/m*3 7 C 0 km/h
120 13-04-2010 00:00:04 7.1 C 6.4 g/m*3 7.1 C 0 km/h
121 13-04-2010 00:12:04 7.2 C 6.36 g/m*3 7.2 C 0 km/h
122 13-04-2010 00:24:04 7.2 C 6.36 g/m*3 7.2 C 0 km/h
123 13-04-2010 00:36:04 7.2 C 6.36 g/m*3 7.2 C 0 km/h
124 13-04-2010 00:48:04 7.3 C 6.4 g/m*3 7.3 C 0 km/h
125 13-04-2010 01:00:04 7.3 C 6.4 g/m*3 7.3 C 0 km/h
Sensor: Nr:Datum:Temp:Abs-Feuchte:Windchill:Wind:
Aussen-T/F 126 13-04-2010 01:12:04 7 C 6.35 g/m*3 7 C 0 km/h
127 13-04-2010 01:24:04 6.9 C 6.54 g/m*3 6.9 C 0 km/h
128 13-04-2010 01:36:04 6.8 C 6.65 g/m*3 6.8 C 0 km/h
129 13-04-2010 01:48:04 6.9 C 6.77 g/m*3 6.9 C 0 km/h
130 13-04-2010 02:00:04 6.8 C 6.81 g/m*3 6.8 C 0 km/h
131 13-04-2010 02:12:05 6.9 C 6.93 g/m*3 6.9 C 0 km/h
132 13-04-2010 02:24:05 6.9 C 7.01 g/m*3 6.9 C 0 km/h
133 13-04-2010 02:36:05 6.9 C 7.08 g/m*3 6.9 C 0 km/h
134 13-04-2010 02:48:05 6.9 C 7.08 g/m*3 6.9 C 0 km/h
135 13-04-2010 03:00:05 6.9 C 7.08 g/m*3 6.9 C 0 km/h
136 13-04-2010 03:12:05 7 C 7.05 g/m*3 7 C 0 km/h
137 13-04-2010 03:24:05 7 C 7.13 g/m*3 7 C 0 km/h
138 13-04-2010 03:36:05 6.9 C 7.08 g/m*3 6.9 C 0 km/h
139 13-04-2010 03:48:05 6.9 C 7.08 g/m*3 6.9 C 0 km/h
140 13-04-2010 04:00:05 6.9 C 7.08 g/m*3 6.9 C 0 km/h
141 13-04-2010 04:12:05 6.9 C 7.16 g/m*3 6.9 C 0 km/h
142 13-04-2010 04:24:05 6.9 C 7.16 g/m*3 6.9 C 0 km/h
143 13-04-2010 04:36:05 6.9 C 7.16 g/m*3 6.9 C 0 km/h
144 13-04-2010 04:48:05 6.8 C 7.11 g/m*3 6.8 C 0 km/h
145 13-04-2010 05:00:05 6.9 C 7.16 g/m*3 6.9 C 0 km/h
146 13-04-2010 05:12:05 7 C 7.21 g/m*3 7 C 0 km/h
147 13-04-2010 05:24:05 7 C 7.21 g/m*3 7 C 0 km/h
148 13-04-2010 05:36:05 6.9 C 7.16 g/m*3 6.9 C 0 km/h
149 13-04-2010 05:48:05 6.9 C 7.16 g/m*3 6.9 C 0 km/h
150 13-04-2010 06:00:05 7 C 7.13 g/m*3 7 C 0 km/h
Sensor: Nr:Datum:Temp:Abs-Feuchte:Windchill:Wind:
Aussen-T/F 151 13-04-2010 06:12:05 6.9 C 7.16 g/m*3 6.9 C 0 km/h
152 13-04-2010 06:24:05 7 C 7.05 g/m*3 7 C 0 km/h
153 13-04-2010 06:36:06 7 C 7.05 g/m*3 7 C 0 km/h
154 13-04-2010 06:48:06 7 C 6.97 g/m*3 7 C 0 km/h
155 13-04-2010 07:00:06 7 C 6.9 g/m*3 7 C 0 km/h
156 13-04-2010 07:12:03 6.8 C 6.81 g/m*3 6.8 C 0 km/h
157 13-04-2010 07:24:03 6.6 C 6.64 g/m*3 6.6 C 0 km/h
158 13-04-2010 07:36:03 6.5 C 6.6 g/m*3 6.5 C 0 km/h
159 13-04-2010 07:48:02 6.5 C 6.6 g/m*3 6.5 C 0 km/h
160 13-04-2010 08:00:02 6.6 C 6.57 g/m*3 6.6 C 0 km/h
161 13-04-2010 08:12:02 6.7 C 6.61 g/m*3 6.7 C 0 km/h
162 13-04-2010 08:24:02 7 C 6.66 g/m*3 7 C 0 km/h
163 13-04-2010 08:36:02 7.3 C 6.64 g/m*3 7.3 C 0 km/h
164 13-04-2010 08:48:02 7.5 C 6.64 g/m*3 7.5 C 0 km/h
165 13-04-2010 09:00:02 7.8 C 6.61 g/m*3 7.8 C 0 km/h
166 13-04-2010 09:12:02 8.1 C 6.49 g/m*3 8.1 C 0 km/h
167 13-04-2010 09:24:03 8.2 C 6.53 g/m*3 8.2 C 0 km/h
168 13-04-2010 09:36:02 8.6 C 6.62 g/m*3 8.6 C 0 km/h
169 13-04-2010 09:48:02 9 C 6.61 g/m*3 9 C 0 km/h
170 13-04-2010 10:00:02 9.4 C 6.69 g/m*3 9.4 C 0 km/h
171 13-04-2010 10:12:02 10.2 C 6.28 g/m*3 10.2 C 0 km/h
172 13-04-2010 10:24:02 10.7 C 6.38 g/m*3 10.7 C 0 km/h
173 13-04-2010 10:36:02 11.2 C 6.18 g/m*3 11.2 C 0 km/h
174 13-04-2010 10:48:01 11.7 C 6.28 g/m*3 11.7 C 0 km/h
175 13-04-2010 11:00:01 12.2 C 6.15 g/m*3 12.2 C 0 km/h
Sensor: Nr:Datum:Temp:Abs-Feuchte:Windchill:Wind:
Aussen-T/F 176 13-04-2010 11:12:02 13.2 C 6.32 g/m*3 13.2 C 0 km/h
177 13-04-2010 11:24:02 13.8 C 6.2 g/m*3 13.8 C 0 km/h
178 13-04-2010 11:36:02 14.1 C 5.58 g/m*3 14.1 C 0 km/h
179 13-04-2010 11:48:02 15 C 5.39 g/m*3 15 C 0 km/h
180 13-04-2010 12:00:02 15 C 4.74 g/m*3 15 C 0 km/h
181 13-04-2010 12:12:02 15 C 4.62 g/m*3 15 C 0 km/h
182 13-04-2010 12:24:02 15.8 C 4.85 g/m*3 15.8 C 0 km/h
183 13-04-2010 12:36:01 15.7 C 4.55 g/m*3 15.7 C 0 km/h
184 13-04-2010 12:48:02 15.3 C 4.57 g/m*3 15.3 C 0 km/h
185 13-04-2010 13:00:02 16.6 C 4.8 g/m*3 16.6 C 0 km/h
186 13-04-2010 13:12:01 16.4 C 4.61 g/m*3 16.4 C 0 km/h
187 13-04-2010 13:24:01 16.8 C 4.43 g/m*3 16.8 C 0 km/h
188 13-04-2010 13:36:02 17.5 C 4.32 g/m*3 17.5 C 0 km/h
189 13-04-2010 13:48:02 17.8 C 4.1 g/m*3 17.8 C 0 km/h
190 13-04-2010 14:00:02 17.6 C 3.9 g/m*3 17.6 C 0 km/h
191 13-04-2010 14:12:02 17.9 C 3.97 g/m*3 17.9 C 0 km/h
192 13-04-2010 14:24:02 17.7 C 3.92 g/m*3 17.7 C 0 km/h
193 13-04-2010 14:36:02 17.5 C 4.03 g/m*3 17.5 C 0 km/h
194 13-04-2010 14:48:02 17.8 C 3.95 g/m*3 17.8 C 0 km/h
195 13-04-2010 15:00:02 17.9 C 4.12 g/m*3 17.9 C 0 km/h
196 13-04-2010 15:12:01 17.8 C 3.79 g/m*3 17.8 C 0 km/h
197 13-04-2010 15:24:01 17.1 C 4.08 g/m*3 17.1 C 0 km/h
198 13-04-2010 15:36:02 17.5 C 4.17 g/m*3 17.5 C 0 km/h
199 13-04-2010 15:48:02 19.1 C 4.1 g/m*3 19.1 C 0 km/h
200 13-04-2010 16:00:02 19.7 C 3.74 g/m*3 19.7 C 0 km/h
Sensor: Nr:Datum:Temp:Abs-Feuchte:Windchill:Wind:
Aussen-T/F 201 13-04-2010 16:12:02 19.5 C 3.52 g/m*3 19.5 C 0 km/h
202 13-04-2010 16:24:01 18.6 C 3.34 g/m*3 18.6 C 0 km/h
203 13-04-2010 16:36:02 18.2 C 3.42 g/m*3 18.2 C 0 km/h
204 13-04-2010 16:48:02 18.8 C 3.7 g/m*3 18.8 C 0 km/h
205 13-04-2010 17:00:02 18.9 C 3.73 g/m*3 18.9 C 0 km/h
206 13-04-2010 17:12:02 18.8 C 3.87 g/m*3 18.8 C 0 km/h
207 13-04-2010 17:24:02 19 C 3.59 g/m*3 19 C 0 km/h
208 13-04-2010 17:36:02 18.6 C 3.82 g/m*3 18.6 C 0 km/h
209 13-04-2010 17:48:02 18.1 C 3.86 g/m*3 18.1 C 0 km/h
210 13-04-2010 18:00:02 17.5 C 3.73 g/m*3 17.5 C 0 km/h
211 13-04-2010 18:12:02 17.3 C 3.83 g/m*3 17.3 C 0 km/h
212 13-04-2010 18:24:02 17.1 C 3.78 g/m*3 17.1 C 0 km/h
213 13-04-2010 18:36:02 16.7 C 3.84 g/m*3 16.7 C 0 km/h
214 13-04-2010 18:48:02 16.3 C 4.16 g/m*3 16.3 C 0 km/h
215 13-04-2010 19:00:02 16 C 4.36 g/m*3 16 C 0 km/h
216 13-04-2010 19:12:02 15.7 C 4.28 g/m*3 15.7 C 0 km/h
217 13-04-2010 19:24:02 15.4 C 4.47 g/m*3 15.4 C 0 km/h
218 13-04-2010 19:36:02 15.1 C 4.52 g/m*3 15.1 C 0 km/h
219 13-04-2010 19:48:01 14.8 C 4.69 g/m*3 14.8 C 0 km/h
220 13-04-2010 20:00:01 14.6 C 4.76 g/m*3 14.6 C 0 km/h
221 13-04-2010 20:12:02 14.5 C 4.85 g/m*3 14.5 C 0 km/h
222 13-04-2010 20:24:02 14.3 C 4.91 g/m*3 14.3 C 0 km/h
223 13-04-2010 20:36:02 14.1 C 5.1 g/m*3 14.1 C 0 km/h
224 13-04-2010 20:48:01 13.9 C 5.15 g/m*3 13.9 C 0 km/h
225 13-04-2010 21:00:01 13.6 C 5.18 g/m*3 13.6 C 0 km/h
Sensor: Nr:Datum:Temp:Abs-Feuchte:Windchill:Wind:
Aussen-T/F 226 13-04-2010 21:12:02 13.4 C 5.11 g/m*3 13.4 C 0 km/h
227 13-04-2010 21:24:02 13.3 C 4.97 g/m*3 13.3 C 0 km/h
228 13-04-2010 21:36:02 13.2 C 4.94 g/m*3 13.2 C 0 km/h
229 13-04-2010 21:48:02 12.8 C 5.04 g/m*3 12.8 C 0 km/h
230 13-04-2010 22:00:02 12.5 C 5.06 g/m*3 12.5 C 0 km/h
231 13-04-2010 22:12:02 12.3 C 5.1 g/m*3 12.3 C 0 km/h
232 13-04-2010 22:24:02 12.1 C 5.04 g/m*3 12.1 C 0 km/h
233 13-04-2010 22:36:02 11.9 C 5.08 g/m*3 11.9 C 0 km/h
234 13-04-2010 22:48:02 11.9 C 5.08 g/m*3 11.9 C 0 km/h
235 13-04-2010 23:00:02 11.8 C 5.05 g/m*3 11.8 C 0 km/h
236 13-04-2010 23:12:02 11.8 C 5.16 g/m*3 11.8 C 0 km/h
237 13-04-2010 23:24:02 11.8 C 5.26 g/m*3 11.8 C 0 km/h
238 13-04-2010 23:36:02 11.6 C 5.2 g/m*3 11.6 C 0 km/h
239 13-04-2010 23:48:02 11.7 C 5.33 g/m*3 11.7 C 0 km/h
240 14-04-2010 00:00:02 11.6 C 5.2 g/m*3 11.6 C 0 km/h
241 14-04-2010 00:12:02 11.5 C 5.16 g/m*3 11.5 C 0 km/h
242 14-04-2010 00:24:02 11.3 C 5.2 g/m*3 11.3 C 0 km/h
243 14-04-2010 00:36:02 11.4 C 5.23 g/m*3 11.4 C 0 km/h
244 14-04-2010 00:48:02 11.2 C 5.17 g/m*3 11.2 C 0 km/h
245 14-04-2010 01:00:02 11.1 C 5.14 g/m*3 11.1 C 0 km/h
246 14-04-2010 01:12:02 11 C 5.2 g/m*3 11 C 0 km/h
247 14-04-2010 01:24:03 11 C 5 g/m*3 11 C 0 km/h
248 14-04-2010 01:36:02 10.9 C 5.17 g/m*3 10.9 C 0 km/h
249 14-04-2010 01:48:03 10.9 C 5.07 g/m*3 10.9 C 0 km/h
250 14-04-2010 02:00:03 10.7 C 5.01 g/m*3 10.7 C 0 km/h
Sensor: Nr:Datum:Temp:Abs-Feuchte:Windchill:Wind:
Aussen-T/F 251 14-04-2010 02:12:02 10.7 C 5.01 g/m*3 10.7 C 0 km/h
252 14-04-2010 02:24:03 10.6 C 5.08 g/m*3 10.6 C 0 km/h
253 14-04-2010 02:36:02 10.4 C 5.11 g/m*3 10.4 C 0 km/h
254 14-04-2010 02:48:02 10.1 C 5.01 g/m*3 10.1 C 0 km/h
255 14-04-2010 03:00:02 9.8 C 5.1 g/m*3 9.8 C 0 km/h
256 14-04-2010 03:12:01 9.5 C 5.01 g/m*3 9.5 C 0 km/h
257 14-04-2010 03:24:01 9.3 C 5.03 g/m*3 9.3 C 0 km/h
258 14-04-2010 03:36:01 9 C 5.03 g/m*3 9 C 0 km/h
259 14-04-2010 03:48:01 8.8 C 5.05 g/m*3 8.8 C 0 km/h
260 14-04-2010 04:00:01 8.8 C 5.14 g/m*3 8.8 C 0 km/h
261 14-04-2010 04:12:01 8.5 C 5.12 g/m*3 8.5 C 0 km/h
262 14-04-2010 04:24:02 8.3 C 5.23 g/m*3 8.3 C 0 km/h
263 14-04-2010 04:36:01 8.3 C 5.23 g/m*3 8.3 C 0 km/h
264 14-04-2010 04:48:01 8.4 C 5.26 g/m*3 8.4 C 0 km/h
265 14-04-2010 05:00:01 8.5 C 5.29 g/m*3 8.5 C 0 km/h
266 14-04-2010 05:12:01 8.4 C 5.34 g/m*3 8.4 C 0 km/h
267 14-04-2010 05:24:02 8.3 C 5.31 g/m*3 8.3 C 0 km/h
268 14-04-2010 05:36:01 8.1 C 5.33 g/m*3 8.1 C 0 km/h
269 14-04-2010 05:48:02 7.8 C 5.3 g/m*3 7.8 C 0 km/h
270 14-04-2010 06:00:02 7.8 C 5.3 g/m*3 7.8 C 0 km/h
271 14-04-2010 06:12:01 7.9 C 5.26 g/m*3 7.9 C 0 km/h
272 14-04-2010 06:24:02 7.7 C 5.11 g/m*3 7.7 C 0 km/h
273 14-04-2010 06:36:01 7.4 C 5.01 g/m*3 7.4 C 0 km/h
274 14-04-2010 06:48:02 7.1 C 4.99 g/m*3 7.1 C 0 km/h
275 14-04-2010 07:00:02 7 C 4.96 g/m*3 7 C 0 km/h
Sensor: Nr:Datum:Temp:Abs-Feuchte:Windchill:Wind:
Aussen-T/F 276 14-04-2010 07:12:01 6.9 C 5 g/m*3 6.9 C 0 km/h
277 14-04-2010 07:24:01 6.8 C 5.05 g/m*3 6.8 C 0 km/h
278 14-04-2010 07:36:02 7.2 C 5.18 g/m*3 7.2 C 0 km/h
279 14-04-2010 07:48:01 7.5 C 5.2 g/m*3 7.5 C 0 km/h
280 14-04-2010 08:00:01 7.5 C 5.2 g/m*3 7.5 C 0 km/h
281 14-04-2010 08:12:01 7.6 C 5.32 g/m*3 7.6 C 0 km/h
282 14-04-2010 08:24:01 7.8 C 5.39 g/m*3 7.8 C 0 km/h
283 14-04-2010 08:36:02 8 C 5.21 g/m*3 8 C 0 km/h
284 14-04-2010 08:48:02 8.2 C 5.11 g/m*3 8.2 C 0 km/h
285 14-04-2010 09:00:02 8.4 C 5.17 g/m*3 8.4 C 0 km/h
286 14-04-2010 09:12:01 8.4 C 5.09 g/m*3 8.4 C 0 km/h
287 14-04-2010 09:24:01 8.6 C 5.16 g/m*3 8.6 C 0 km/h
288 14-04-2010 09:36:02 9.1 C 5.15 g/m*3 9.1 C 0 km/h
289 14-04-2010 09:48:01 9.5 C 5.19 g/m*3 9.5 C 0 km/h
290 14-04-2010 10:00:01 9.9 C 5.14 g/m*3 9.9 C 0 km/h
291 14-04-2010 10:12:01 10.5 C 5.14 g/m*3 10.5 C 0 km/h
292 14-04-2010 10:24:01 11 C 5 g/m*3 11 C 0 km/h
293 14-04-2010 10:36:02 11.5 C 5.16 g/m*3 11.5 C 0 km/h
294 14-04-2010 10:48:01 11.7 C 4.81 g/m*3 11.7 C 0 km/h
295 14-04-2010 11:00:01 11.9 C 4.87 g/m*3 11.9 C 0 km/h
296 14-04-2010 11:12:02 12.8 C 4.93 g/m*3 12.8 C 0 km/h
297 14-04-2010 11:24:01 13.1 C 4.68 g/m*3 13.1 C 0 km/h
298 14-04-2010 11:36:01 13.5 C 4.91 g/m*3 13.5 C 0 km/h
299 14-04-2010 11:48:01 14.1 C 4.85 g/m*3 14.1 C 0 km/h
300 14-04-2010 12:00:01 13.8 C 4.65 g/m*3 13.8 C 0 km/h
Sensor: Nr:Datum:Temp:Abs-Feuchte:Windchill:Wind:
Aussen-T/F 301 14-04-2010 12:12:02 13.4 C 4.65 g/m*3 13.4 C 0 km/h
302 14-04-2010 12:24:01 13.6 C 4.59 g/m*3 13.6 C 0 km/h
303 14-04-2010 12:36:01 13.7 C 4.74 g/m*3 13.7 C 0 km/h
304 14-04-2010 12:48:01 14.9 C 4.72 g/m*3 14.9 C 0 km/h
305 14-04-2010 13:00:01 14.4 C 4.33 g/m*3 14.4 C 0 km/h
306 14-04-2010 13:12:02 14.5 C 3.98 g/m*3 14.5 C 0 km/h
307 14-04-2010 13:24:01 13.5 C 4.09 g/m*3 13.5 C 0 km/h
308 14-04-2010 13:36:01 14.4 C 3.96 g/m*3 14.4 C 0 km/h
309 14-04-2010 13:48:01 14.3 C 3.81 g/m*3 14.3 C 0 km/h
310 14-04-2010 14:00:01 13.7 C 4.03 g/m*3 13.7 C 0 km/h
311 14-04-2010 14:12:01 14.5 C 3.86 g/m*3 14.5 C 0 km/h
312 14-04-2010 14:24:01 14 C 3.74 g/m*3 14 C 0 km/h
313 14-04-2010 14:36:01 13.5 C 3.98 g/m*3 13.5 C 0 km/h
314 14-04-2010 14:48:01 13.7 C 4.14 g/m*3 13.7 C 0 km/h
315 14-04-2010 15:00:01 14.3 C 3.69 g/m*3 14.3 C 0 km/h
316 14-04-2010 15:12:01 15.8 C 3.37 g/m*3 15.8 C 0 km/h
317 14-04-2010 15:24:02 15.1 C 2.58 g/m*3 15.1 C 0 km/h
318 14-04-2010 15:36:01 14.8 C 2.53 g/m*3 14.8 C 0 km/h
319 14-04-2010 15:48:02 14.4 C 2.47 g/m*3 14.4 C 0 km/h
320 14-04-2010 16:00:02 16 C 4.22 g/m*3 16 C 0 km/h
321 14-04-2010 16:12:01 16.2 C 3.45 g/m*3 16.2 C 0 km/h
322 14-04-2010 16:24:02 16.3 C 2.77 g/m*3 16.3 C 0 km/h
323 14-04-2010 16:36:01 18.5 C 3.16 g/m*3 18.5 C 0 km/h
324 14-04-2010 16:48:02 17.2 C 2.93 g/m*3 17.2 C 0 km/h
325 14-04-2010 17:00:02 16.3 C 2.77 g/m*3 16.3 C 0 km/h
Sensor: Nr:Datum:Temp:Abs-Feuchte:Windchill:Wind:
Aussen-T/F 326 14-04-2010 17:12:01 17.2 C 2.93 g/m*3 17.2 C 0 km/h
327 14-04-2010 17:24:01 18.1 C 3.09 g/m*3 18.1 C 0 km/h
328 14-04-2010 17:36:01 17.2 C 2.93 g/m*3 17.2 C 0 km/h
329 14-04-2010 17:48:02 16.7 C 2.84 g/m*3 16.7 C 0 km/h
330 14-04-2010 18:00:02 16.8 C 2.86 g/m*3 16.8 C 0 km/h
331 14-04-2010 18:12:01 18.1 C 3.09 g/m*3 18.1 C 0 km/h
332 14-04-2010 18:24:01 18.9 C 3.24 g/m*3 18.9 C 0 km/h
333 14-04-2010 18:36:02 17.3 C 2.95 g/m*3 17.3 C 0 km/h
334 14-04-2010 18:48:02 15.6 C 2.66 g/m*3 15.6 C 0 km/h
335 14-04-2010 19:00:02 15.8 C 2.96 g/m*3 15.8 C 0 km/h
336 14-04-2010 19:12:01 15.3 C 2.74 g/m*3 15.3 C 0 km/h
337 14-04-2010 19:24:01 14.7 C 3.15 g/m*3 14.7 C 0 km/h
338 14-04-2010 19:36:02 14.3 C 3.07 g/m*3 14.3 C 0 km/h
339 14-04-2010 19:48:01 14 C 3.26 g/m*3 14 C 0 km/h
340 14-04-2010 20:00:01 13.6 C 3.41 g/m*3 13.6 C 0 km/h
341 14-04-2010 20:12:02 13.1 C 3.65 g/m*3 13.1 C 0 km/h
342 14-04-2010 20:24:01 13 C 3.74 g/m*3 13 C 0 km/h
343 14-04-2010 20:36:02 12.7 C 3.9 g/m*3 12.7 C 0 km/h
344 14-04-2010 20:48:01 12.4 C 4.04 g/m*3 12.4 C 0 km/h
345 14-04-2010 21:00:01 11.7 C 3.97 g/m*3 11.7 C 0 km/h
346 14-04-2010 21:12:02 11.2 C 4.05 g/m*3 11.2 C 0 km/h
347 14-04-2010 21:24:01 10.7 C 4.03 g/m*3 10.7 C 0 km/h
348 14-04-2010 21:36:01 10.5 C 4.07 g/m*3 10.5 C 0 km/h
349 14-04-2010 21:48:01 10.3 C 4.12 g/m*3 10.3 C 0 km/h
350 14-04-2010 22:00:01 10.3 C 4.21 g/m*3 10.3 C 0 km/h
Sensor: Nr:Datum:Temp:Abs-Feuchte:Windchill:Wind:
Aussen-T/F 351 14-04-2010 22:12:02 10.4 C 4.34 g/m*3 10.4 C 0 km/h
352 14-04-2010 22:24:01 10.8 C 4.45 g/m*3 10.8 C 0 km/h
353 14-04-2010 22:36:01 11 C 4.6 g/m*3 11 C 0 km/h
354 14-04-2010 22:48:01 11 C 4.7 g/m*3 11 C 0 km/h
355 14-04-2010 23:00:01 10.9 C 4.97 g/m*3 10.9 C 0 km/h
356 14-04-2010 23:12:01 10.8 C 4.94 g/m*3 10.8 C 0 km/h
357 14-04-2010 23:24:01 10.8 C 5.04 g/m*3 10.8 C 0 km/h
358 14-04-2010 23:36:01 10.6 C 4.98 g/m*3 10.6 C 0 km/h
359 14-04-2010 23:48:01 10.5 C 5.04 g/m*3 10.5 C 0 km/h
360 15-04-2010 00:00:01 10.3 C 5.08 g/m*3 10.3 C 0 km/h
361 15-04-2010 00:12:01 10.2 C 5.14 g/m*3 10.2 C 0 km/h
362 15-04-2010 00:24:02 10.1 C 5.11 g/m*3 10.1 C 0 km/h
363 15-04-2010 00:36:01 10.1 C 5.2 g/m*3 10.1 C 0 km/h
364 15-04-2010 00:48:01 10.1 C 5.2 g/m*3 10.1 C 0 km/h
365 15-04-2010 01:00:01 10.1 C 5.2 g/m*3 10.1 C 0 km/h
366 15-04-2010 01:12:01 10.1 C 5.3 g/m*3 10.1 C 0 km/h
367 15-04-2010 01:24:02 10.1 C 5.3 g/m*3 10.1 C 0 km/h
368 15-04-2010 01:36:01 10.1 C 5.3 g/m*3 10.1 C 0 km/h
369 15-04-2010 01:48:02 10 C 5.26 g/m*3 10 C 0 km/h
370 15-04-2010 02:00:02 9.9 C 5.32 g/m*3 9.9 C 0 km/h
371 15-04-2010 02:12:01 9.8 C 5.38 g/m*3 9.8 C 0 km/h
372 15-04-2010 02:24:02 9.8 C 5.38 g/m*3 9.8 C 0 km/h
373 15-04-2010 02:36:01 9.7 C 5.35 g/m*3 9.7 C 0 km/h
374 15-04-2010 02:49:07 9.7 C 5.44 g/m*3 9.7 C 0 km/h
375 15-04-2010 03:01:07 9.6 C 5.4 g/m*3 9.6 C 0 km/h
Sensor: Nr:Datum:Temp:Abs-Feuchte:Windchill:Wind:
Aussen-T/F 376 15-04-2010 03:13:06 9.5 C 5.37 g/m*3 9.5 C 0 km/h
377 15-04-2010 03:25:06 9.5 C 5.37 g/m*3 9.5 C 0 km/h
378 15-04-2010 03:37:01 9.4 C 5.34 g/m*3 9.4 C 0 km/h
379 15-04-2010 03:49:01 9.3 C 5.3 g/m*3 9.3 C 0 km/h
380 15-04-2010 04:01:01 9.1 C 5.32 g/m*3 9.1 C 0 km/h
381 15-04-2010 04:13:01 8.7 C 5.28 g/m*3 8.7 C 0 km/h
382 15-04-2010 04:25:02 8.4 C 5.34 g/m*3 8.4 C 0 km/h
383 15-04-2010 04:37:01 8.4 C 5.34 g/m*3 8.4 C 0 km/h
384 15-04-2010 04:49:01 8.7 C 5.36 g/m*3 8.7 C 0 km/h
385 15-04-2010 05:01:01 8.8 C 5.4 g/m*3 8.8 C 0 km/h
386 15-04-2010 05:13:01 8.9 C 5.43 g/m*3 8.9 C 0 km/h
387 15-04-2010 05:25:02 9 C 5.38 g/m*3 9 C 0 km/h
388 15-04-2010 05:37:01 9 C 5.38 g/m*3 9 C 0 km/h
389 15-04-2010 05:49:03 8.9 C 5.43 g/m*3 8.9 C 0 km/h
390 15-04-2010 06:01:02 8.9 C 5.43 g/m*3 8.9 C 0 km/h
391 15-04-2010 06:13:02 8.9 C 5.43 g/m*3 8.9 C 0 km/h
392 15-04-2010 06:25:02 8.6 C 5.41 g/m*3 8.6 C 0 km/h
393 15-04-2010 06:37:02 8 C 5.29 g/m*3 8 C 0 km/h
394 15-04-2010 06:49:02 7.6 C 5.4 g/m*3 7.6 C 0 km/h
395 15-04-2010 07:01:02 7.3 C 5.37 g/m*3 7.3 C 0 km/h
396 15-04-2010 07:13:02 7.3 C 5.45 g/m*3 7.3 C 0 km/h
397 15-04-2010 07:25:02 7.1 C 5.38 g/m*3 7.1 C 0 km/h
398 15-04-2010 07:37:01 7.2 C 5.42 g/m*3 7.2 C 0 km/h
399 15-04-2010 07:49:02 7.5 C 5.52 g/m*3 7.5 C 0 km/h
400 15-04-2010 08:01:01 7.8 C 5.55 g/m*3 7.8 C 0 km/h
Sensor: Nr:Datum:Temp:Abs-Feuchte:Windchill:Wind:
Aussen-T/F 401 15-04-2010 08:13:01 8.1 C 5.49 g/m*3 8.1 C 0 km/h
402 15-04-2010 08:25:01 8.4 C 5.43 g/m*3 8.4 C 0 km/h
403 15-04-2010 08:37:02 8.8 C 5.48 g/m*3 8.8 C 0 km/h
404 15-04-2010 08:49:02 9 C 5.29 g/m*3 9 C 0 km/h
405 15-04-2010 09:01:01 9.3 C 5.39 g/m*3 9.3 C 0 km/h
406 15-04-2010 09:13:01 9.3 C 5.21 g/m*3 9.3 C 0 km/h
407 15-04-2010 09:25:02 9.8 C 5.38 g/m*3 9.8 C 0 km/h
408 15-04-2010 09:37:02 10.4 C 5.3 g/m*3 10.4 C 0 km/h
409 15-04-2010 09:49:01 10.5 C 5.14 g/m*3 10.5 C 0 km/h
410 15-04-2010 10:01:02 10.5 C 5.24 g/m*3 10.5 C 0 km/h
411 15-04-2010 10:13:02 10.4 C 5.2 g/m*3 10.4 C 0 km/h
412 15-04-2010 10:25:01 10.1 C 5.11 g/m*3 10.1 C 0 km/h
413 15-04-2010 10:37:02 9.9 C 5.04 g/m*3 9.9 C 0 km/h
414 15-04-2010 10:49:02 10.2 C 4.95 g/m*3 10.2 C 0 km/h
415 15-04-2010 11:01:02 10.5 C 4.85 g/m*3 10.5 C 0 km/h
416 15-04-2010 11:13:02 10.9 C 5.07 g/m*3 10.9 C 0 km/h
417 15-04-2010 11:25:02 11.7 C 5.12 g/m*3 11.7 C 0 km/h
418 15-04-2010 11:37:02 12.4 C 5.03 g/m*3 12.4 C 0 km/h
419 15-04-2010 11:49:02 13.2 C 4.82 g/m*3 13.2 C 0 km/h
420 15-04-2010 12:01:02 14.4 C 4.94 g/m*3 14.4 C 0 km/h
421 15-04-2010 12:13:02 14.7 C 4.53 g/m*3 14.7 C 0 km/h
422 15-04-2010 12:25:02 15 C 4.74 g/m*3 15 C 0 km/h
423 15-04-2010 12:37:02 15.2 C 4.54 g/m*3 15.2 C 0 km/h
424 15-04-2010 12:49:01 15.2 C 4.54 g/m*3 15.2 C 0 km/h
425 15-04-2010 13:01:02 14.8 C 4.43 g/m*3 14.8 C 0 km/h
Sensor: Nr:Datum:Temp:Abs-Feuchte:Windchill:Wind:
Aussen-T/F 426 15-04-2010 13:13:02 15.4 C 4.47 g/m*3 15.4 C 0 km/h
427 15-04-2010 13:25:01 14.2 C 4.27 g/m*3 14.2 C 0 km/h
428 15-04-2010 13:37:02 13.8 C 4.53 g/m*3 13.8 C 0 km/h
429 15-04-2010 13:49:02 13.6 C 4.47 g/m*3 13.6 C 0 km/h
430 15-04-2010 14:01:01 13.8 C 4.65 g/m*3 13.8 C 0 km/h
431 15-04-2010 14:13:01 14 C 4.46 g/m*3 14 C 0 km/h
432 15-04-2010 14:25:02 14.2 C 4.52 g/m*3 14.2 C 0 km/h
433 15-04-2010 14:37:02 15.3 C 4.7 g/m*3 15.3 C 0 km/h
434 15-04-2010 14:49:02 15.6 C 4.65 g/m*3 15.6 C 0 km/h
435 15-04-2010 15:01:03 16.4 C 4.75 g/m*3 16.4 C 0 km/h
436 15-04-2010 15:13:03 18.3 C 4.69 g/m*3 18.3 C 0 km/h
437 15-04-2010 15:25:02 17.8 C 4.55 g/m*3 17.8 C 0 km/h
438 15-04-2010 15:37:02 15.9 C 4.33 g/m*3 15.9 C 0 km/h
439 15-04-2010 15:49:02 16.6 C 4.66 g/m*3 16.6 C 0 km/h
440 15-04-2010 16:01:02 16.1 C 4.8 g/m*3 16.1 C 0 km/h
441 15-04-2010 16:13:02 15 C 4.62 g/m*3 15 C 0 km/h
442 15-04-2010 16:25:01 14.4 C 5.07 g/m*3 14.4 C 0 km/h
443 15-04-2010 16:37:02 14.3 C 4.79 g/m*3 14.3 C 0 km/h
444 15-04-2010 16:49:02 14.7 C 4.91 g/m*3 14.7 C 0 km/h
445 15-04-2010 17:01:02 15.4 C 4.86 g/m*3 15.4 C 0 km/h
446 15-04-2010 17:13:02 14.8 C 4.69 g/m*3 14.8 C 0 km/h
447 15-04-2010 17:25:02 15 C 4.74 g/m*3 15 C 0 km/h
448 15-04-2010 17:37:02 15.3 C 4.83 g/m*3 15.3 C 0 km/h
449 15-04-2010 17:49:02 15.8 C 4.85 g/m*3 15.8 C 0 km/h
450 15-04-2010 18:01:02 15.7 C 4.68 g/m*3 15.7 C 0 km/h
Sensor: Nr:Datum:Temp:Abs-Feuchte:Windchill:Wind:
Aussen-T/F 451 15-04-2010 18:13:02 15.7 C 4.82 g/m*3 15.7 C 0 km/h
452 15-04-2010 18:25:02 15.6 C 4.92 g/m*3 15.6 C 0 km/h
453 15-04-2010 18:37:02 15.5 C 5.02 g/m*3 15.5 C 0 km/h
454 15-04-2010 18:49:01 15.4 C 4.99 g/m*3 15.4 C 0 km/h
455 15-04-2010 19:01:02 15.4 C 4.73 g/m*3 15.4 C 0 km/h
456 15-04-2010 19:13:02 15.2 C 4.8 g/m*3 15.2 C 0 km/h
457 15-04-2010 19:25:01 15.1 C 4.9 g/m*3 15.1 C 0 km/h
458 15-04-2010 19:37:02 14.8 C 5.07 g/m*3 14.8 C 0 km/h
459 15-04-2010 19:49:01 14.4 C 4.7 g/m*3 14.4 C 0 km/h
460 15-04-2010 20:01:02 14.1 C 4.85 g/m*3 14.1 C 0 km/h
461 15-04-2010 20:13:03 13.8 C 4.89 g/m*3 13.8 C 0 km/h
462 15-04-2010 20:25:01 13.6 C 4.12 g/m*3 13.6 C 0 km/h
463 15-04-2010 20:37:02 13.3 C 3.81 g/m*3 13.3 C 0 km/h
464 15-04-2010 20:49:02 13.1 C 3.65 g/m*3 13.1 C 0 km/h
465 15-04-2010 21:01:02 12.9 C 3.61 g/m*3 12.9 C 0 km/h
466 15-04-2010 21:13:03 12.7 C 3.67 g/m*3 12.7 C 0 km/h
467 15-04-2010 21:25:01 12.6 C 3.87 g/m*3 12.6 C 0 km/h
468 15-04-2010 21:37:02 12.5 C 3.85 g/m*3 12.5 C 0 km/h
469 15-04-2010 21:49:02 12.4 C 3.82 g/m*3 12.4 C 0 km/h
470 15-04-2010 22:01:02 12.4 C 3.71 g/m*3 12.4 C 0 km/h
471 15-04-2010 22:13:02 12.2 C 3.78 g/m*3 12.2 C 0 km/h
472 15-04-2010 22:25:02 12.2 C 3.56 g/m*3 12.2 C 0 km/h
473 15-04-2010 22:37:02 12.1 C 3.43 g/m*3 12.1 C 0 km/h
474 15-04-2010 22:49:02 12.1 C 3.43 g/m*3 12.1 C 0 km/h
475 15-04-2010 23:01:02 11.9 C 3.71 g/m*3 11.9 C 0 km/h
Sensor: Nr:Datum:Temp:Abs-Feuchte:Windchill:Wind:
Aussen-T/F 476 15-04-2010 23:13:02 11.8 C 3.79 g/m*3 11.8 C 0 km/h
477 15-04-2010 23:25:02 11.6 C 3.85 g/m*3 11.6 C 0 km/h
478 15-04-2010 23:37:02 11.5 C 3.72 g/m*3 11.5 C 0 km/h
479 15-04-2010 23:49:01 11.4 C 3.7 g/m*3 11.4 C 0 km/h
480 16-04-2010 00:01:02 11.4 C 3.9 g/m*3 11.4 C 0 km/h
481 16-04-2010 00:13:03 11.1 C 4.03 g/m*3 11.1 C 0 km/h
482 16-04-2010 00:25:01 10.9 C 3.98 g/m*3 10.9 C 0 km/h
483 16-04-2010 00:37:02 10.8 C 3.95 g/m*3 10.8 C 0 km/h
484 16-04-2010 00:49:02 10.7 C 4.03 g/m*3 10.7 C 0 km/h
485 16-04-2010 01:01:02 10.5 C 3.98 g/m*3 10.5 C 0 km/h
486 16-04-2010 01:13:02 10.3 C 4.02 g/m*3 10.3 C 0 km/h
487 16-04-2010 01:25:02 10.1 C 3.97 g/m*3 10.1 C 0 km/h
488 16-04-2010 01:37:02 10.1 C 4.07 g/m*3 10.1 C 0 km/h
489 16-04-2010 01:49:02 9.6 C 4.21 g/m*3 9.6 C 0 km/h
490 16-04-2010 02:01:03 9.3 C 4.22 g/m*3 9.3 C 0 km/h
491 16-04-2010 02:13:03 9 C 4.14 g/m*3 9 C 0 km/h
492 16-04-2010 02:25:02 8.7 C 4.32 g/m*3 8.7 C 0 km/h
493 16-04-2010 02:37:02 8.4 C 4.24 g/m*3 8.4 C 0 km/h
494 16-04-2010 02:50:03 8 C 4.22 g/m*3 8 C 0 km/h
495 16-04-2010 03:02:03 7.8 C 4.24 g/m*3 7.8 C 0 km/h
496 16-04-2010 03:14:04 7.7 C 4.3 g/m*3 7.7 C 0 km/h
497 16-04-2010 03:26:04 7.7 C 4.38 g/m*3 7.7 C 0 km/h
498 16-04-2010 03:38:02 7.4 C 4.37 g/m*3 7.4 C 0 km/h
499 16-04-2010 03:50:03 7.2 C 4.4 g/m*3 7.2 C 0 km/h
500 16-04-2010 04:02:02 7.3 C 4.42 g/m*3 7.3 C 0 km/h
Sensor: Nr:Datum:Temp:Abs-Feuchte:Windchill:Wind:
Aussen-T/F 501 16-04-2010 04:14:02 7.6 C 4.35 g/m*3 7.6 C 0 km/h
502 16-04-2010 04:26:02 7.6 C 4.27 g/m*3 7.6 C 0 km/h
503 16-04-2010 04:38:03 7.4 C 4.21 g/m*3 7.4 C 0 km/h
504 16-04-2010 04:50:02 7.2 C 4.24 g/m*3 7.2 C 0 km/h
505 16-04-2010 05:02:01 7.1 C 4.21 g/m*3 7.1 C 0 km/h
506 16-04-2010 05:14:01 7.1 C 4.21 g/m*3 7.1 C 0 km/h
507 16-04-2010 05:26:02 6.9 C 4.23 g/m*3 6.9 C 0 km/h
508 16-04-2010 05:38:02 6.8 C 4.28 g/m*3 6.8 C 0 km/h
509 16-04-2010 05:50:02 6.5 C 4.27 g/m*3 6.5 C 0 km/h
510 16-04-2010 06:02:01 6.3 C 4.37 g/m*3 6.3 C 0 km/h
511 16-04-2010 06:14:01 6.3 C 4.37 g/m*3 6.3 C 0 km/h
512 16-04-2010 06:26:01 6.1 C 4.38 g/m*3 6.1 C 0 km/h
513 16-04-2010 06:38:02 5.8 C 4.44 g/m*3 5.8 C 0 km/h
514 16-04-2010 06:50:02 5.9 C 4.69 g/m*3 5.9 C 0 km/h
515 16-04-2010 07:02:02 5.8 C 4.73 g/m*3 5.8 C 0 km/h
516 16-04-2010 07:14:02 5.8 C 4.8 g/m*3 5.8 C 0 km/h
517 16-04-2010 07:26:02 5.9 C 4.9 g/m*3 5.9 C 0 km/h
518 16-04-2010 07:38:02 6 C 4.94 g/m*3 6 C 0 km/h
519 16-04-2010 07:50:02 5.9 C 4.98 g/m*3 5.9 C 0 km/h
520 16-04-2010 08:02:02 5.8 C 4.94 g/m*3 5.8 C 0 km/h
521 16-04-2010 08:14:02 5.9 C 5.05 g/m*3 5.9 C 0 km/h
522 16-04-2010 08:26:02 5.9 C 5.05 g/m*3 5.9 C 0 km/h
523 16-04-2010 08:38:02 6.1 C 5.04 g/m*3 6.1 C 0 km/h
524 16-04-2010 08:50:01 6.3 C 5.03 g/m*3 6.3 C 0 km/h
525 16-04-2010 09:02:02 6.2 C 5 g/m*3 6.2 C 0 km/h
Sensor: Nr:Datum:Temp:Abs-Feuchte:Windchill:Wind:
Aussen-T/F 526 16-04-2010 09:14:02 6.2 C 5 g/m*3 6.2 C 0 km/h
527 16-04-2010 09:26:01 6.2 C 5 g/m*3 6.2 C 0 km/h
528 16-04-2010 09:38:02 6.2 C 5.07 g/m*3 6.2 C 0 km/h
529 16-04-2010 09:50:02 6.8 C 5.2 g/m*3 6.8 C 0 km/h
530 16-04-2010 10:02:02 6.7 C 5.09 g/m*3 6.7 C 0 km/h
531 16-04-2010 10:14:02 6.7 C 5.09 g/m*3 6.7 C 0 km/h
532 16-04-2010 10:26:02 6.7 C 4.94 g/m*3 6.7 C 0 km/h
533 16-04-2010 10:38:02 7.1 C 4.91 g/m*3 7.1 C 0 km/h
534 16-04-2010 10:50:02 7.2 C 4.87 g/m*3 7.2 C 0 km/h
535 16-04-2010 11:02:02 7 C 4.8 g/m*3 7 C 0 km/h
536 16-04-2010 11:14:02 7.5 C 4.88 g/m*3 7.5 C 0 km/h
537 16-04-2010 11:26:02 7.3 C 4.66 g/m*3 7.3 C 0 km/h
538 16-04-2010 11:38:02 7.5 C 4.8 g/m*3 7.5 C 0 km/h
539 16-04-2010 11:50:02 7.6 C 4.59 g/m*3 7.6 C 0 km/h
540 16-04-2010 12:02:03 8.5 C 4.7 g/m*3 8.5 C 0 km/h
541 16-04-2010 12:14:03 8.8 C 4.61 g/m*3 8.8 C 0 km/h
542 16-04-2010 12:26:02 9 C 4.41 g/m*3 9 C 0 km/h
543 16-04-2010 12:38:02 9.3 C 4.49 g/m*3 9.3 C 0 km/h
544 16-04-2010 12:50:02 9.1 C 4.35 g/m*3 9.1 C 0 km/h
545 16-04-2010 13:02:02 9.8 C 4.36 g/m*3 9.8 C 0 km/h
546 16-04-2010 13:14:02 10.2 C 4.28 g/m*3 10.2 C 0 km/h
547 16-04-2010 13:26:01 10.7 C 4.32 g/m*3 10.7 C 0 km/h
548 16-04-2010 13:38:02 11.2 C 4.16 g/m*3 11.2 C 0 km/h
549 16-04-2010 13:50:02 11.6 C 3.95 g/m*3 11.6 C 0 km/h
550 16-04-2010 14:02:02 12.3 C 3.91 g/m*3 12.3 C 0 km/h
Sensor: Nr:Datum:Temp:Abs-Feuchte:Windchill:Wind:
Aussen-T/F 551 16-04-2010 14:14:02 13.3 C 3.7 g/m*3 13.3 C 0 km/h
552 16-04-2010 14:26:02 13.5 C 3.63 g/m*3 13.5 C 0 km/h
553 16-04-2010 14:38:02 14 C 3.62 g/m*3 14 C 0 km/h
554 16-04-2010 14:50:02 14.5 C 3.73 g/m*3 14.5 C 0 km/h
555 16-04-2010 15:02:02 15 C 3.59 g/m*3 15 C 0 km/h
556 16-04-2010 15:14:02 13.9 C 3.48 g/m*3 13.9 C 0 km/h
557 16-04-2010 15:26:02 14.1 C 3.64 g/m*3 14.1 C 0 km/h
558 16-04-2010 15:38:01 15.2 C 3.5 g/m*3 15.2 C 0 km/h
559 16-04-2010 15:50:02 15.3 C 3.4 g/m*3 15.3 C 0 km/h
560 16-04-2010 16:02:01 15 C 3.33 g/m*3 15 C 0 km/h
561 16-04-2010 16:14:01 15.3 C 3.4 g/m*3 15.3 C 0 km/h
562 16-04-2010 16:26:02 14.6 C 3.5 g/m*3 14.6 C 0 km/h
563 16-04-2010 16:38:01 14 C 3.26 g/m*3 14 C 0 km/h
564 16-04-2010 16:50:03 14.1 C 3.4 g/m*3 14.1 C 0 km/h
565 16-04-2010 17:02:02 14.7 C 3.4 g/m*3 14.7 C 0 km/h
566 16-04-2010 17:14:02 15.3 C 3.4 g/m*3 15.3 C 0 km/h
567 16-04-2010 17:26:02 15.4 C 3.28 g/m*3 15.4 C 0 km/h
568 16-04-2010 17:38:02 15.3 C 3.26 g/m*3 15.3 C 0 km/h
569 16-04-2010 17:50:02 14.7 C 3.27 g/m*3 14.7 C 0 km/h
570 16-04-2010 18:02:02 15.5 C 3.17 g/m*3 15.5 C 0 km/h
571 16-04-2010 18:14:02 15.6 C 3.32 g/m*3 15.6 C 0 km/h
572 16-04-2010 18:26:02 14.6 C 3.25 g/m*3 14.6 C 0 km/h
573 16-04-2010 18:38:02 14.3 C 3.19 g/m*3 14.3 C 0 km/h
574 16-04-2010 18:50:02 14.5 C 3.36 g/m*3 14.5 C 0 km/h
575 16-04-2010 19:02:02 14.5 C 3.23 g/m*3 14.5 C 0 km/h
Sensor: Nr:Datum:Temp:Abs-Feuchte:Windchill:Wind:
Aussen-T/F 576 16-04-2010 19:14:02 14.6 C 3.38 g/m*3 14.6 C 0 km/h
577 16-04-2010 19:26:02 13.4 C 3.25 g/m*3 13.4 C 0 km/h
578 16-04-2010 19:38:01 12.9 C 3.38 g/m*3 12.9 C 0 km/h
579 16-04-2010 19:50:02 12.5 C 3.41 g/m*3 12.5 C 0 km/h
580 16-04-2010 20:02:01 12.3 C 3.47 g/m*3 12.3 C 0 km/h
581 16-04-2010 20:14:01 11.7 C 3.56 g/m*3 11.7 C 0 km/h
582 16-04-2010 20:26:02 11.2 C 3.65 g/m*3 11.2 C 0 km/h
583 16-04-2010 20:38:01 10.8 C 3.66 g/m*3 10.8 C 0 km/h
584 16-04-2010 20:50:02 10.5 C 3.69 g/m*3 10.5 C 0 km/h
585 16-04-2010 21:02:01 10.3 C 3.83 g/m*3 10.3 C 0 km/h
586 16-04-2010 21:14:01 9.9 C 3.83 g/m*3 9.9 C 0 km/h
587 16-04-2010 21:26:02 9.6 C 3.85 g/m*3 9.6 C 0 km/h
588 16-04-2010 21:38:01 9.3 C 3.86 g/m*3 9.3 C 0 km/h
589 16-04-2010 21:50:03 9.1 C 3.99 g/m*3 9.1 C 0 km/h
590 16-04-2010 22:02:02 8.9 C 3.94 g/m*3 8.9 C 0 km/h
591 16-04-2010 22:14:02 8.8 C 3.92 g/m*3 8.8 C 0 km/h
592 16-04-2010 22:26:03 8.5 C 4.1 g/m*3 8.5 C 0 km/h
593 16-04-2010 22:38:02 8.2 C 4.02 g/m*3 8.2 C 0 km/h
594 16-04-2010 22:50:03 8.1 C 4.08 g/m*3 8.1 C 0 km/h
595 16-04-2010 23:03:02 7.9 C 4.11 g/m*3 7.9 C 0 km/h
596 16-04-2010 23:15:02 7.7 C 4.14 g/m*3 7.7 C 0 km/h
597 16-04-2010 23:27:02 7.6 C 4.19 g/m*3 7.6 C 0 km/h
598 16-04-2010 23:39:02 7.4 C 4.14 g/m*3 7.4 C 0 km/h
599 16-04-2010 23:51:02 7.1 C 4.13 g/m*3 7.1 C 0 km/h
600 17-04-2010 00:03:02 7 C 4.18 g/m*3 7 C 0 km/h
Sensor: Nr:Datum:Temp:Abs-Feuchte:Windchill:Wind:
Aussen-T/F 601 17-04-2010 00:15:02 6.7 C 4.26 g/m*3 6.7 C 0 km/h
602 17-04-2010 00:27:02 6.5 C 4.27 g/m*3 6.5 C 0 km/h
603 17-04-2010 00:39:02 6.4 C 4.25 g/m*3 6.4 C 0 km/h
604 17-04-2010 00:51:02 6.2 C 4.19 g/m*3 6.2 C 0 km/h
605 17-04-2010 01:03:02 6.1 C 4.16 g/m*3 6.1 C 0 km/h
606 17-04-2010 01:15:02 5.9 C 4.33 g/m*3 5.9 C 0 km/h
607 17-04-2010 01:27:02 5.7 C 4.27 g/m*3 5.7 C 0 km/h
608 17-04-2010 01:39:02 5.5 C 4.28 g/m*3 5.5 C 0 km/h
609 17-04-2010 01:51:02 5.4 C 4.33 g/m*3 5.4 C 0 km/h
610 17-04-2010 02:03:02 5.2 C 4.34 g/m*3 5.2 C 0 km/h
611 17-04-2010 02:15:02 5.1 C 4.24 g/m*3 5.1 C 0 km/h
612 17-04-2010 02:27:02 5 C 4.28 g/m*3 5 C 0 km/h
613 17-04-2010 02:39:02 4.7 C 4.33 g/m*3 4.7 C 0 km/h
614 17-04-2010 02:51:03 4.5 C 4.27 g/m*3 4.5 C 0 km/h
615 17-04-2010 03:03:03 4.4 C 4.31 g/m*3 4.4 C 0 km/h
616 17-04-2010 03:15:03 4.2 C 4.25 g/m*3 4.2 C 0 km/h
617 17-04-2010 03:27:03 4.2 C 4.25 g/m*3 4.2 C 0 km/h
618 17-04-2010 03:39:03 3.7 C 4.18 g/m*3 3.7 C 0 km/h
619 17-04-2010 03:51:03 3.6 C 4.27 g/m*3 3.6 C 0 km/h
620 17-04-2010 04:03:03 3.6 C 4.27 g/m*3 3.6 C 0 km/h
621 17-04-2010 04:15:03 3.4 C 4.34 g/m*3 3.4 C 0 km/h
622 17-04-2010 04:27:03 3.2 C 4.34 g/m*3 3.2 C 0 km/h
623 17-04-2010 04:39:03 3 C 4.34 g/m*3 3 C 0 km/h
624 17-04-2010 04:51:03 2.8 C 4.28 g/m*3 2.8 C 0 km/h
625 17-04-2010 05:03:03 2.6 C 4.28 g/m*3 2.6 C 0 km/h
Sensor: Nr:Datum:Temp:Abs-Feuchte:Windchill:Wind:
Aussen-T/F 626 17-04-2010 05:15:03 2.5 C 4.25 g/m*3 2.5 C 0 km/h
627 17-04-2010 05:27:03 2.4 C 4.28 g/m*3 2.4 C 0 km/h
628 17-04-2010 05:39:03 2.2 C 4.28 g/m*3 2.2 C 0 km/h
629 17-04-2010 05:51:03 2.1 C 4.31 g/m*3 2.1 C 0 km/h
630 17-04-2010 06:03:03 1.9 C 4.3 g/m*3 1.9 C 0 km/h
631 17-04-2010 06:15:03 1.8 C 4.28 g/m*3 1.8 C 0 km/h
632 17-04-2010 06:27:03 1.9 C 4.3 g/m*3 1.9 C 0 km/h
633 17-04-2010 06:39:03 1.6 C 4.22 g/m*3 1.6 C 0 km/h
634 17-04-2010 06:51:04 1.5 C 4.19 g/m*3 1.5 C 0 km/h
635 17-04-2010 07:03:04 1.5 C 4.24 g/m*3 1.5 C 0 km/h
636 17-04-2010 07:15:04 1.5 C 4.24 g/m*3 1.5 C 0 km/h
637 17-04-2010 07:27:04 1.6 C 4.27 g/m*3 1.6 C 0 km/h
638 17-04-2010 07:39:04 1.6 C 4.33 g/m*3 1.6 C 0 km/h
639 17-04-2010 07:51:04 1.7 C 4.36 g/m*3 1.7 C 0 km/h
640 17-04-2010 08:03:04 1.9 C 4.42 g/m*3 1.9 C 0 km/h
641 17-04-2010 08:15:03 2.2 C 4.51 g/m*3 2.2 C 0 km/h
642 17-04-2010 08:27:03 2.5 C 4.6 g/m*3 2.5 C 0 km/h
643 17-04-2010 08:39:02 2.7 C 4.66 g/m*3 2.7 C 0 km/h
644 17-04-2010 08:51:04 3 C 4.7 g/m*3 3 C 0 km/h
645 17-04-2010 09:03:03 3.3 C 4.73 g/m*3 3.3 C 0 km/h
646 17-04-2010 09:15:04 3.7 C 4.8 g/m*3 3.7 C 0 km/h
647 17-04-2010 09:27:04 4.4 C 4.9 g/m*3 4.4 C 0 km/h
648 17-04-2010 09:39:03 5.1 C 4.92 g/m*3 5.1 C 0 km/h
649 17-04-2010 09:51:01 5.6 C 4.88 g/m*3 5.6 C 0 km/h
650 17-04-2010 10:03:01 6.7 C 4.94 g/m*3 6.7 C 0 km/h
Sensor: Nr:Datum:Temp:Abs-Feuchte:Windchill:Wind:
Aussen-T/F 651 17-04-2010 10:15:02 7 C 4.57 g/m*3 7 C 0 km/h
652 17-04-2010 10:27:02 7.5 C 4.4 g/m*3 7.5 C 0 km/h
653 17-04-2010 10:39:01 8.1 C 3.99 g/m*3 8.1 C 0 km/h
654 17-04-2010 10:51:01 8.6 C 3.87 g/m*3 8.6 C 0 km/h
655 17-04-2010 11:03:02 9.3 C 3.86 g/m*3 9.3 C 0 km/h
656 17-04-2010 11:15:01 10 C 3.66 g/m*3 10 C 0 km/h
657 17-04-2010 11:27:01 10.1 C 3.22 g/m*3 10.1 C 0 km/h
658 17-04-2010 11:39:01 10.5 C 3.39 g/m*3 10.5 C 0 km/h
659 17-04-2010 11:51:01 11 C 3.2 g/m*3 11 C 0 km/h
660 17-04-2010 12:03:02 11.2 C 3.24 g/m*3 11.2 C 0 km/h
661 17-04-2010 12:15:02 12 C 3.09 g/m*3 12 C 0 km/h
662 17-04-2010 12:27:02 12.5 C 2.97 g/m*3 12.5 C 0 km/h
663 17-04-2010 12:39:01 12.7 C 2.89 g/m*3 12.7 C 0 km/h
664 17-04-2010 12:51:01 12.6 C 2.77 g/m*3 12.6 C 0 km/h
665 17-04-2010 13:03:02 13.2 C 2.3 g/m*3 13.2 C 0 km/h
666 17-04-2010 13:15:02 13.9 C 2.4 g/m*3 13.9 C 0 km/h
667 17-04-2010 13:27:02 14.8 C 2.53 g/m*3 14.8 C 0 km/h
668 17-04-2010 13:39:01 15.5 C 2.64 g/m*3 15.5 C 0 km/h
669 17-04-2010 13:51:01 15.6 C 2.66 g/m*3 15.6 C 0 km/h
670 17-04-2010 14:03:02 16.4 C 2.79 g/m*3 16.4 C 0 km/h
671 17-04-2010 14:15:02 17 C 2.89 g/m*3 17 C 0 km/h
672 17-04-2010 14:27:02 17.6 C 3 g/m*3 17.6 C 0 km/h
673 17-04-2010 14:39:01 18.4 C 3.15 g/m*3 18.4 C 0 km/h
674 17-04-2010 14:51:01 19.4 C 3.34 g/m*3 19.4 C 0 km/h
675 17-04-2010 15:03:02 20 C 3.46 g/m*3 20 C 0 km/h
Sensor: Nr:Datum:Temp:Abs-Feuchte:Windchill:Wind:
Aussen-T/F 676 17-04-2010 15:15:02 20.8 C 3.62 g/m*3 20.8 C 0 km/h
677 17-04-2010 15:27:02 21 C 3.66 g/m*3 21 C 0 km/h
678 17-04-2010 15:39:01 21.9 C 3.86 g/m*3 21.9 C 0 km/h
679 17-04-2010 15:51:01 22.2 C 3.93 g/m*3 22.2 C 0 km/h
680 17-04-2010 16:03:02 20.9 C 3.64 g/m*3 20.9 C 0 km/h
681 17-04-2010 16:15:02 21 C 3.66 g/m*3 21 C 0 km/h
682 17-04-2010 16:27:02 22.2 C 3.93 g/m*3 22.2 C 0 km/h
683 17-04-2010 16:39:01 23.3 C 4.18 g/m*3 23.3 C 0 km/h
684 17-04-2010 16:51:01 23.5 C 4.23 g/m*3 23.5 C 0 km/h
685 17-04-2010 17:03:02 23.9 C 4.33 g/m*3 23.9 C 0 km/h
686 17-04-2010 17:15:02 24.1 C 4.38 g/m*3 24.1 C 0 km/h
687 17-04-2010 17:27:02 24.8 C 4.55 g/m*3 24.8 C 0 km/h
688 17-04-2010 17:39:02 23.4 C 4.21 g/m*3 23.4 C 0 km/h
689 17-04-2010 17:51:01 23.6 C 4.25 g/m*3 23.6 C 0 km/h
690 17-04-2010 18:03:02 24.1 C 4.38 g/m*3 24.1 C 0 km/h
691 17-04-2010 18:15:02 24.8 C 4.55 g/m*3 24.8 C 0 km/h
692 17-04-2010 18:27:02 24.1 C 4.38 g/m*3 24.1 C 0 km/h
693 17-04-2010 18:39:02 24.6 C 4.5 g/m*3 24.6 C 0 km/h
694 17-04-2010 18:51:01 24.5 C 4.48 g/m*3 24.5 C 0 km/h
695 17-04-2010 19:03:02 24.2 C 4.4 g/m*3 24.2 C 0 km/h
696 17-04-2010 19:15:02 24 C 4.35 g/m*3 24 C 0 km/h
697 17-04-2010 19:27:02 23 C 4.11 g/m*3 23 C 0 km/h
698 17-04-2010 19:39:02 22.3 C 3.95 g/m*3 22.3 C 0 km/h
699 17-04-2010 19:51:01 21.6 C 3.79 g/m*3 21.6 C 0 km/h
700 17-04-2010 20:03:02 20.1 C 3.48 g/m*3 20.1 C 0 km/h
Sensor: Nr:Datum:Temp:Abs-Feuchte:Windchill:Wind:
Aussen-T/F 701 17-04-2010 20:15:02 18.6 C 3.18 g/m*3 18.6 C 0 km/h
702 17-04-2010 20:27:02 17.1 C 2.91 g/m*3 17.1 C 0 km/h
703 17-04-2010 20:39:01 16.2 C 2.76 g/m*3 16.2 C 0 km/h
704 17-04-2010 20:51:01 15.2 C 2.73 g/m*3 15.2 C 0 km/h
705 17-04-2010 21:03:02 14.5 C 3.11 g/m*3 14.5 C 0 km/h
706 17-04-2010 21:15:02 13.7 C 3.08 g/m*3 13.7 C 0 km/h
707 17-04-2010 21:27:02 13.5 C 3.16 g/m*3 13.5 C 0 km/h
708 17-04-2010 21:39:01 13.2 C 3.1 g/m*3 13.2 C 0 km/h
709 17-04-2010 21:51:02 12.9 C 3.27 g/m*3 12.9 C 0 km/h
710 17-04-2010 22:03:01 12.4 C 3.17 g/m*3 12.4 C 0 km/h
711 17-04-2010 22:15:02 11.8 C 3.26 g/m*3 11.8 C 0 km/h
712 17-04-2010 22:27:02 11.9 C 3.28 g/m*3 11.9 C 0 km/h
713 17-04-2010 22:39:02 11.7 C 3.35 g/m*3 11.7 C 0 km/h
714 17-04-2010 22:51:02 11.2 C 3.45 g/m*3 11.2 C 0 km/h
715 17-04-2010 23:04:02 10.8 C 3.66 g/m*3 10.8 C 0 km/h
716 17-04-2010 23:16:02 10.4 C 3.66 g/m*3 10.4 C 0 km/h
717 17-04-2010 23:28:02 10.2 C 3.52 g/m*3 10.2 C 0 km/h
718 17-04-2010 23:40:02 9.6 C 3.57 g/m*3 9.6 C 0 km/h
719 17-04-2010 23:52:02 9.5 C 3.64 g/m*3 9.5 C 0 km/h
720 18-04-2010 00:04:02 9.2 C 3.57 g/m*3 9.2 C 0 km/h
721 18-04-2010 00:16:02 9 C 3.61 g/m*3 9 C 0 km/h
722 18-04-2010 00:28:02 8.9 C 3.68 g/m*3 8.9 C 0 km/h
723 18-04-2010 00:40:02 8.7 C 3.63 g/m*3 8.7 C 0 km/h
724 18-04-2010 00:52:03 8.3 C 3.54 g/m*3 8.3 C 0 km/h
725 18-04-2010 01:04:03 8.1 C 3.66 g/m*3 8.1 C 0 km/h
Sensor: Nr:Datum:Temp:Abs-Feuchte:Windchill:Wind:
Aussen-T/F 726 18-04-2010 01:16:03 7.8 C 3.67 g/m*3 7.8 C 0 km/h
727 18-04-2010 01:28:03 7.5 C 3.92 g/m*3 7.5 C 0 km/h
728 18-04-2010 01:40:03 7.2 C 3.92 g/m*3 7.2 C 0 km/h
729 18-04-2010 01:52:03 7.1 C 3.82 g/m*3 7.1 C 0 km/h
730 18-04-2010 02:04:03 7 C 3.8 g/m*3 7 C 0 km/h
731 18-04-2010 02:16:03 6.8 C 3.82 g/m*3 6.8 C 0 km/h
732 18-04-2010 02:28:03 6.6 C 3.85 g/m*3 6.6 C 0 km/h
733 18-04-2010 02:40:03 6.3 C 3.85 g/m*3 6.3 C 0 km/h
734 18-04-2010 02:52:03 6 C 3.85 g/m*3 6 C 0 km/h
735 18-04-2010 03:04:03 5.9 C 3.97 g/m*3 5.9 C 0 km/h
736 18-04-2010 03:16:03 5.6 C 3.89 g/m*3 5.6 C 0 km/h
737 18-04-2010 03:28:03 5.2 C 3.86 g/m*3 5.2 C 0 km/h
738 18-04-2010 03:40:03 5.3 C 4.02 g/m*3 5.3 C 0 km/h
739 18-04-2010 03:52:03 5.1 C 3.97 g/m*3 5.1 C 0 km/h
740 18-04-2010 04:04:03 5 C 3.94 g/m*3 5 C 0 km/h
741 18-04-2010 04:16:03 4.8 C 4.02 g/m*3 4.8 C 0 km/h
742 18-04-2010 04:28:03 4.5 C 4.08 g/m*3 4.5 C 0 km/h
743 18-04-2010 04:40:03 4.3 C 4.09 g/m*3 4.3 C 0 km/h
744 18-04-2010 04:52:03 4.2 C 4.06 g/m*3 4.2 C 0 km/h
745 18-04-2010 05:04:04 3.9 C 4.11 g/m*3 3.9 C 0 km/h
746 18-04-2010 05:16:04 3.8 C 4.08 g/m*3 3.8 C 0 km/h
747 18-04-2010 05:28:04 3.8 C 4.08 g/m*3 3.8 C 0 km/h
748 18-04-2010 05:40:04 3.6 C 4.09 g/m*3 3.6 C 0 km/h
749 18-04-2010 05:52:04 3.4 C 4.03 g/m*3 3.4 C 0 km/h
750 18-04-2010 06:04:04 3.3 C 4.06 g/m*3 3.3 C 0 km/h
Sensor: Nr:Datum:Temp:Abs-Feuchte:Windchill:Wind:
Aussen-T/F 751 18-04-2010 06:16:04 3.1 C 4.07 g/m*3 3.1 C 0 km/h
752 18-04-2010 06:28:04 3 C 4.04 g/m*3 3 C 0 km/h
753 18-04-2010 06:40:04 2.9 C 4.07 g/m*3 2.9 C 0 km/h
754 18-04-2010 06:52:04 2.8 C 4.11 g/m*3 2.8 C 0 km/h
755 18-04-2010 07:04:04 2.7 C 4.14 g/m*3 2.7 C 0 km/h
756 18-04-2010 07:16:04 2.6 C 4.17 g/m*3 2.6 C 0 km/h
757 18-04-2010 07:28:04 2.6 C 4.22 g/m*3 2.6 C 0 km/h
758 18-04-2010 07:40:04 2.6 C 4.17 g/m*3 2.6 C 0 km/h
759 18-04-2010 07:52:04 2.8 C 4.22 g/m*3 2.8 C 0 km/h
760 18-04-2010 08:04:02 3.1 C 4.25 g/m*3 3.1 C 0 km/h
761 18-04-2010 08:16:02 3.4 C 4.34 g/m*3 3.4 C 0 km/h
762 18-04-2010 08:28:02 3.7 C 4.36 g/m*3 3.7 C 0 km/h
763 18-04-2010 08:40:02 4 C 4.26 g/m*3 4 C 0 km/h
764 18-04-2010 08:52:01 4.3 C 4.35 g/m*3 4.3 C 0 km/h
765 18-04-2010 09:04:02 4.6 C 4.37 g/m*3 4.6 C 0 km/h
766 18-04-2010 09:16:01 5.1 C 4.38 g/m*3 5.1 C 0 km/h
767 18-04-2010 09:28:01 5.7 C 4.48 g/m*3 5.7 C 0 km/h
768 18-04-2010 09:40:02 6.3 C 4.52 g/m*3 6.3 C 0 km/h
769 18-04-2010 09:52:02 7.2 C 4.47 g/m*3 7.2 C 0 km/h
770 18-04-2010 10:04:02 7.9 C 4.44 g/m*3 7.9 C 0 km/h
771 18-04-2010 10:16:02 8.5 C 4.27 g/m*3 8.5 C 0 km/h
772 18-04-2010 10:28:02 9.2 C 4.29 g/m*3 9.2 C 0 km/h
773 18-04-2010 10:40:02 9.7 C 4.15 g/m*3 9.7 C 0 km/h
774 18-04-2010 10:52:02 10.7 C 4.32 g/m*3 10.7 C 0 km/h
775 18-04-2010 11:04:02 11.5 C 4.23 g/m*3 11.5 C 0 km/h
Sensor: Nr:Datum:Temp:Abs-Feuchte:Windchill:Wind:
Aussen-T/F 776 18-04-2010 11:16:02 12.4 C 4.37 g/m*3 12.4 C 0 km/h
777 18-04-2010 11:28:02 13.4 C 4.42 g/m*3 13.4 C 0 km/h
778 18-04-2010 11:40:02 14 C 4.34 g/m*3 14 C 0 km/h
779 18-04-2010 11:52:02 15 C 4.36 g/m*3 15 C 0 km/h
780 18-04-2010 12:04:02 15.5 C 4.23 g/m*3 15.5 C 0 km/h
781 18-04-2010 12:16:01 16.1 C 4.11 g/m*3 16.1 C 0 km/h
782 18-04-2010 12:28:01 16.6 C 3.67 g/m*3 16.6 C 0 km/h
783 18-04-2010 12:40:02 17 C 2.89 g/m*3 17 C 0 km/h
784 18-04-2010 12:52:02 17.2 C 2.93 g/m*3 17.2 C 0 km/h
785 18-04-2010 13:04:02 18 C 3.07 g/m*3 18 C 0 km/h
786 18-04-2010 13:16:02 18.5 C 3.16 g/m*3 18.5 C 0 km/h
787 18-04-2010 13:28:02 19.5 C 3.36 g/m*3 19.5 C 0 km/h
788 18-04-2010 13:40:02 19.7 C 3.4 g/m*3 19.7 C 0 km/h
789 18-04-2010 13:52:01 20.6 C 3.58 g/m*3 20.6 C 0 km/h
790 18-04-2010 14:04:02 20.1 C 3.48 g/m*3 20.1 C 0 km/h
791 18-04-2010 14:16:01 21 C 3.66 g/m*3 21 C 0 km/h
792 18-04-2010 14:28:01 22.2 C 3.93 g/m*3 22.2 C 0 km/h
793 18-04-2010 14:40:02 22 C 3.88 g/m*3 22 C 0 km/h
794 18-04-2010 14:52:02 22.7 C 4.04 g/m*3 22.7 C 0 km/h
795 18-04-2010 15:04:01 23.1 C 4.13 g/m*3 23.1 C 0 km/h
796 18-04-2010 15:16:02 23.5 C 4.23 g/m*3 23.5 C 0 km/h
797 18-04-2010 15:28:02 23.6 C 4.25 g/m*3 23.6 C 0 km/h
798 18-04-2010 15:40:02 23.3 C 4.18 g/m*3 23.3 C 0 km/h
799 18-04-2010 15:52:01 22.9 C 4.09 g/m*3 22.9 C 0 km/h
800 18-04-2010 16:04:02 24 C 4.35 g/m*3 24 C 0 km/h
Sensor: Nr:Datum:Temp:Abs-Feuchte:Windchill:Wind:
Aussen-T/F 801 18-04-2010 16:16:01 23.7 C 4.28 g/m*3 23.7 C 0 km/h
802 18-04-2010 16:28:01 24.6 C 4.5 g/m*3 24.6 C 0 km/h
803 18-04-2010 16:40:02 24.7 C 4.53 g/m*3 24.7 C 0 km/h
804 18-04-2010 16:52:02 25.1 C 4.63 g/m*3 25.1 C 0 km/h
805 18-04-2010 17:04:02 26 C 4.87 g/m*3 26 C 0 km/h
806 18-04-2010 17:16:02 26.9 C 5.12 g/m*3 26.9 C 0 km/h
807 18-04-2010 17:28:02 25.9 C 4.84 g/m*3 25.9 C 0 km/h
808 18-04-2010 17:40:02 25.1 C 4.63 g/m*3 25.1 C 0 km/h
809 18-04-2010 17:52:02 24.9 C 4.58 g/m*3 24.9 C 0 km/h
810 18-04-2010 18:04:01 25.9 C 4.84 g/m*3 25.9 C 0 km/h
811 18-04-2010 18:16:01 25.9 C 4.84 g/m*3 25.9 C 0 km/h
812 18-04-2010 18:28:01 25 C 4.6 g/m*3 25 C 0 km/h
813 18-04-2010 18:40:02 25.5 C 4.73 g/m*3 25.5 C 0 km/h
814 18-04-2010 18:52:02 24.8 C 4.55 g/m*3 24.8 C 0 km/h
815 18-04-2010 19:04:02 24.5 C 4.48 g/m*3 24.5 C 0 km/h
816 18-04-2010 19:16:02 24.1 C 4.38 g/m*3 24.1 C 0 km/h
817 18-04-2010 19:28:02 24.6 C 4.5 g/m*3 24.6 C 0 km/h
818 18-04-2010 19:40:02 24.1 C 4.38 g/m*3 24.1 C 0 km/h
819 18-04-2010 19:52:02 22.7 C 4.04 g/m*3 22.7 C 0 km/h
820 18-04-2010 20:04:02 21.1 C 3.69 g/m*3 21.1 C 0 km/h
821 18-04-2010 20:16:01 20 C 3.46 g/m*3 20 C 0 km/h
822 18-04-2010 20:28:01 19.1 C 3.28 g/m*3 19.1 C 0 km/h
823 18-04-2010 20:40:02 18.3 C 3.13 g/m*3 18.3 C 0 km/h
824 18-04-2010 20:52:02 18.1 C 3.09 g/m*3 18.1 C 0 km/h
825 18-04-2010 21:04:02 17.8 C 3.04 g/m*3 17.8 C 0 km/h
Sensor: Nr:Datum:Temp:Abs-Feuchte:Windchill:Wind:
Aussen-T/F 826 18-04-2010 21:16:02 17.5 C 2.98 g/m*3 17.5 C 0 km/h
827 18-04-2010 21:28:02 17.2 C 2.93 g/m*3 17.2 C 0 km/h
828 18-04-2010 21:40:02 16.7 C 2.84 g/m*3 16.7 C 0 km/h
829 18-04-2010 21:52:01 16.4 C 2.79 g/m*3 16.4 C 0 km/h
830 18-04-2010 22:04:01 15.7 C 2.68 g/m*3 15.7 C 0 km/h
831 18-04-2010 22:17:03 15.5 C 2.64 g/m*3 15.5 C 0 km/h
832 18-04-2010 22:29:03 15 C 2.82 g/m*3 15 C 0 km/h
833 18-04-2010 22:41:03 14.5 C 3.23 g/m*3 14.5 C 0 km/h
834 18-04-2010 22:53:03 14.1 C 3.16 g/m*3 14.1 C 0 km/h
835 18-04-2010 23:05:03 13.9 C 3.12 g/m*3 13.9 C 0 km/h
836 18-04-2010 23:17:03 13.4 C 3.14 g/m*3 13.4 C 0 km/h
837 18-04-2010 23:29:03 12.7 C 3.45 g/m*3 12.7 C 0 km/h
838 18-04-2010 23:41:03 12.3 C 3.58 g/m*3 12.3 C 0 km/h
839 18-04-2010 23:53:03 12.1 C 3.65 g/m*3 12.1 C 0 km/h

Legende:
   Min
   Max


Maximal/Minimal-Werte vom 12.04.2010 - 18.04.2010

Sensor Min Max Avg
Temp
(Aussen-T/F)
1.5 °C
17-04-2010  06:51:04
26.9 °C
18-04-2010  17:16:02
11.01 °C
Abs-Feuchte
(Aussen-T/F)
2.3 g/m*3
17-04-2010  13:03:02
7.21 g/m*3
13-04-2010  05:12:05
4.59 g/m*3
Windchill
(Aussen-T/F)
1.5 C
17-04-2010  06:51:04
26.9 C
18-04-2010  17:16:02
11 C

Die Daten stammen von einer Davis Vantage Pro 2 Wetter-Station und werden unter Linux mit der Software wview2wettercgi und aufbereitet. Alle Angaben erfolgen ohne Gewähr für ihre Vollständigkeit oder Richtigkeit.
Kontakt: Rainer Krienke krienke@uni-koblenz.de . Meine Webseiten an der Uni Koblenz oder privat.
Version: $Revision: 0.78 $